Time;durP1;ratioP1;P1;durP2;ratioP2;P2;SDS_P1;SDS_P2;PMS_P1;PMS_P2;Temp;Humidity;BMP_temperature;BMP_pressure;BME280_temperature;BME280_humidity;BME280_pressure;Samples;Min_cycle;Max_cycle;Signal;HPM_P1;HPM_P2
2023/06/19 03:00:38;;;;;;;2.70;2.50;;;27.40;40.40;;;;;;6092717;23;45076;31
2023/06/19 03:03:04;;;;;;;2.25;2.05;;;27.30;40.30;;;;;;4914490;28;45654;-65
2023/06/19 03:05:30;;;;;;;2.70;2.50;;;27.30;40.30;;;;;;4842827;28;45385;-63
2023/06/19 03:07:55;;;;;;;2.50;2.30;;;27.30;40.30;;;;;;4912953;28;46235;-62
2023/06/19 03:10:21;;;;;;;2.72;2.53;;;27.30;40.30;;;;;;4912051;28;47309;-64
2023/06/19 03:12:46;;;;;;;2.40;2.20;;;27.40;40.40;;;;;;4902867;28;45238;-65
2023/06/19 03:15:12;;;;;;;2.50;2.30;;;27.40;40.40;;;;;;4920383;28;45359;-64
2023/06/19 03:17:37;;;;;;;2.22;2.08;;;27.30;40.30;;;;;;4923780;28;45741;-64
2023/06/19 03:20:05;;;;;;;2.17;2.08;;;27.40;40.40;;;;;;4907373;28;45065;-64
2023/06/19 03:22:31;;;;;;;2.90;2.70;;;27.30;40.30;;;;;;4910649;28;45061;-65
2023/06/19 03:24:57;;;;;;;2.30;2.10;;;27.30;40.40;;;;;;4895853;28;45285;-64
2023/06/19 03:27:22;;;;;;;2.60;2.40;;;27.40;40.50;;;;;;4915682;28;45440;-64
2023/06/19 03:29:48;;;;;;;2.85;2.60;;;27.30;40.40;;;;;;4923369;28;45034;-65
2023/06/19 03:32:13;;;;;;;2.58;2.38;;;27.30;40.40;;;;;;4914578;28;45079;-63
2023/06/19 03:34:39;;;;;;;2.45;2.25;;;27.30;40.40;;;;;;4923182;28;45011;-64
2023/06/19 03:37:05;;;;;;;2.28;2.08;;;27.40;40.50;;;;;;4917833;28;46230;-66
2023/06/19 03:39:31;;;;;;;2.80;2.60;;;27.30;40.40;;;;;;4908907;28;45207;-64
2023/06/19 03:41:56;;;;;;;2.80;2.60;;;27.30;40.40;;;;;;4922977;28;44821;-65
2023/06/19 03:44:22;;;;;;;2.85;2.63;;;27.30;40.50;;;;;;4925037;28;44735;-64
2023/06/19 03:46:47;;;;;;;2.70;2.50;;;27.30;40.50;;;;;;4901248;28;45576;-62
2023/06/19 03:49:13;;;;;;;2.83;2.60;;;27.30;40.50;;;;;;4922971;28;45037;-64
2023/06/19 03:51:38;;;;;;;2.40;2.20;;;27.30;40.40;;;;;;4920248;28;45164;-64
2023/06/19 03:54:04;;;;;;;2.28;2.08;;;27.30;40.50;;;;;;4920845;28;45080;-64
2023/06/19 03:56:29;;;;;;;2.63;2.42;;;27.30;40.50;;;;;;4908046;28;46109;-65
2023/06/19 03:58:55;;;;;;;2.45;2.25;;;27.30;40.50;;;;;;4926517;28;44843;-64
2023/06/19 04:01:20;;;;;;;2.10;1.95;;;27.30;40.50;;;;;;4906314;28;45572;-62
2023/06/19 04:03:46;;;;;;;2.33;2.13;;;27.30;40.50;;;;;;4917496;28;45102;-65
2023/06/19 04:06:11;;;;;;;2.40;2.20;;;27.30;40.50;;;;;;4915999;28;45993;-63
2023/06/19 04:08:37;;;;;;;2.10;1.90;;;27.30;40.60;;;;;;4902570;28;45185;-64
2023/06/19 04:11:03;;;;;;;2.10;1.90;;;27.30;40.50;;;;;;4881261;28;45586;-63
2023/06/19 04:13:28;;;;;;;2.50;2.30;;;27.30;40.50;;;;;;4921861;28;45127;-62
2023/06/19 04:15:54;;;;;;;2.40;2.20;;;27.30;40.60;;;;;;4903741;28;45210;-64
2023/06/19 04:18:19;;;;;;;2.50;2.30;;;27.30;40.60;;;;;;4923742;28;45326;-64
2023/06/19 04:20:45;;;;;;;2.40;2.20;;;27.30;40.60;;;;;;4918006;28;45052;-64
2023/06/19 04:23:10;;;;;;;2.65;2.38;;;27.30;40.60;;;;;;4907573;28;44933;-62
2023/06/19 04:25:37;;;;;;;2.50;2.30;;;27.30;40.60;;;;;;4917659;28;45127;-65
2023/06/19 04:28:03;;;;;;;2.63;2.42;;;27.30;40.50;;;;;;4905764;28;44711;-64
2023/06/19 04:30:30;;;;;;;2.40;2.20;;;27.30;40.50;;;;;;4918676;28;45161;-62
2023/06/19 04:33:00;;;;;;;2.33;2.13;;;27.30;40.50;;;;;;4906832;28;45209;-64
2023/06/19 04:35:25;;;;;;;2.40;2.20;;;27.30;40.60;;;;;;4917726;28;45193;-65
2023/06/19 04:37:51;;;;;;;2.08;1.98;;;27.30;40.50;;;;;;4905210;28;45195;-62
2023/06/19 04:40:17;;;;;;;2.47;2.28;;;27.30;40.50;;;;;;4902165;28;45156;-65
2023/06/19 04:42:42;;;;;;;2.42;2.22;;;27.30;40.60;;;;;;4918304;28;44951;-64
2023/06/19 04:45:09;;;;;;;2.25;2.05;;;27.30;40.60;;;;;;4904703;28;47293;-62
2023/06/19 04:47:35;;;;;;;2.38;2.17;;;27.30;40.60;;;;;;4919505;28;45005;-65
2023/06/19 04:50:00;;;;;;;2.35;2.15;;;27.30;40.60;;;;;;4911186;28;44959;-63
2023/06/19 04:52:26;;;;;;;2.03;1.83;;;27.30;40.60;;;;;;4903806;28;45125;-65
2023/06/19 04:54:51;;;;;;;2.25;2.05;;;27.30;40.60;;;;;;4923250;28;46126;-64
2023/06/19 04:57:17;;;;;;;2.22;2.03;;;27.30;40.60;;;;;;4899061;28;45189;-65
2023/06/19 04:59:44;;;;;;;2.28;2.08;;;27.30;40.60;;;;;;4907931;28;44769;-64
2023/06/19 05:02:10;;;;;;;3.22;2.05;;;27.30;40.70;;;;;;4902892;28;45209;-64
2023/06/19 05:04:36;;;;;;;2.42;2.15;;;27.30;40.70;;;;;;4921155;28;46959;-64
2023/06/19 05:07:02;;;;;;;2.33;2.13;;;27.30;40.70;;;;;;4903778;28;45310;-63
2023/06/19 05:09:28;;;;;;;2.22;2.08;;;27.30;40.70;;;;;;4925114;28;44927;-65
2023/06/19 05:11:53;;;;;;;2.65;2.45;;;27.30;40.70;;;;;;4923462;28;45522;-65
2023/06/19 05:14:19;;;;;;;1.92;1.83;;;27.30;40.60;;;;;;4907526;28;45845;-64
2023/06/19 05:16:44;;;;;;;2.42;2.22;;;27.30;40.60;;;;;;4915434;28;45423;-65
2023/06/19 05:19:10;;;;;;;2.45;2.25;;;27.30;40.60;;;;;;4910685;28;45257;-64
2023/06/19 05:21:36;;;;;;;2.92;2.67;;;27.40;40.60;;;;;;4917244;28;45341;-62
2023/06/19 05:24:01;;;;;;;2.60;2.40;;;27.30;40.60;;;;;;4910630;28;45508;-65
2023/06/19 05:26:27;;;;;;;2.40;2.20;;;27.30;40.60;;;;;;4891363;28;45121;-65
2023/06/19 05:28:53;;;;;;;2.50;2.30;;;27.30;40.60;;;;;;4909480;28;45125;-66
2023/06/19 05:31:19;;;;;;;2.60;2.40;;;27.40;40.60;;;;;;4904332;28;45129;-65
2023/06/19 05:33:44;;;;;;;2.20;2.00;;;27.40;40.60;;;;;;4908432;28;46301;-65
2023/06/19 05:36:10;;;;;;;2.30;2.10;;;27.40;40.60;;;;;;4888619;28;45075;-63
2023/06/19 05:38:35;;;;;;;2.20;2.00;;;27.40;40.60;;;;;;4908905;28;45107;-65
2023/06/19 05:41:02;;;;;;;2.08;1.90;;;27.40;40.60;;;;;;4917083;28;45158;-65
2023/06/19 05:43:28;;;;;;;1.85;1.75;;;27.40;40.60;;;;;;4907072;28;45475;-64
2023/06/19 05:45:54;;;;;;;2.25;2.05;;;27.40;40.60;;;;;;4920651;28;45167;-65
2023/06/19 05:48:19;;;;;;;2.70;2.40;;;27.30;40.60;;;;;;4919468;28;45398;-65
2023/06/19 05:50:45;;;;;;;2.28;2.08;;;27.40;40.60;;;;;;4922348;28;45042;-62
2023/06/19 05:53:10;;;;;;;2.47;2.28;;;27.40;40.60;;;;;;4911465;28;45849;-65
2023/06/19 05:55:36;;;;;;;2.53;2.33;;;27.40;40.40;;;;;;4913325;28;45314;-66
2023/06/19 05:58:02;;;;;;;3.10;2.80;;;27.50;40.40;;;;;;4912153;28;45221;-65
2023/06/19 06:00:29;;;;;;;3.42;3.13;;;27.50;40.30;;;;;;4906891;28;46094;-65
2023/06/19 06:02:56;;;;;;;4.03;3.22;;;27.50;40.20;;;;;;4891307;28;45555;-65
2023/06/19 06:05:22;;;;;;;4.18;3.78;;;27.50;40.10;;;;;;4905711;28;44904;-65
2023/06/19 06:07:47;;;;;;;5.30;3.85;;;27.50;40.10;;;;;;4927033;28;44944;-64
2023/06/19 06:10:14;;;;;;;5.93;3.78;;;27.50;40.10;;;;;;4925614;28;45214;-66
2023/06/19 06:12:39;;;;;;;4.57;4.10;;;27.60;40.10;;;;;;4926244;28;45100;-68
2023/06/19 06:15:07;;;;;;;6.10;3.83;;;27.50;40.10;;;;;;4909789;28;45045;-66
2023/06/19 06:17:32;;;;;;;6.38;4.30;;;27.50;40.20;;;;;;4921894;28;45275;-66
2023/06/19 06:19:58;;;;;;;5.53;3.97;;;27.50;40.30;;;;;;4909040;28;45387;-66
2023/06/19 06:22:24;;;;;;;6.47;4.18;;;27.60;40.40;;;;;;4907438;28;45504;-66
2023/06/19 06:24:49;;;;;;;4.75;4.28;;;27.60;40.40;;;;;;4920498;28;45189;-66
2023/06/19 06:27:15;;;;;;;4.32;4.00;;;27.60;40.40;;;;;;4911517;28;45253;-66
2023/06/19 06:29:40;;;;;;;4.30;3.90;;;27.60;40.40;;;;;;4929537;28;45194;-66
2023/06/19 06:32:07;;;;;;;4.97;4.47;;;27.60;40.50;;;;;;4903866;28;45427;-65
2023/06/19 06:34:33;;;;;;;7.10;4.45;;;27.60;40.60;;;;;;4924517;28;45178;-63
2023/06/19 06:37:00;;;;;;;4.57;4.07;;;27.60;40.60;;;;;;4917069;28;45068;-66
2023/06/19 06:39:25;;;;;;;5.82;4.18;;;27.60;40.70;;;;;;4912542;28;44739;-66
2023/06/19 06:41:51;;;;;;;6.80;4.35;;;27.60;40.70;;;;;;4891609;28;45012;-66
2023/06/19 06:44:16;;;;;;;5.35;4.85;;;27.60;40.70;;;;;;4897286;28;45041;-67
2023/06/19 06:46:42;;;;;;;4.65;4.25;;;27.60;40.80;;;;;;4911443;28;45045;-65
2023/06/19 06:49:08;;;;;;;4.85;4.13;;;27.60;40.90;;;;;;4909909;28;45198;-65
2023/06/19 06:51:33;;;;;;;6.15;4.20;;;27.60;40.90;;;;;;4920445;28;45378;-63
2023/06/19 06:53:59;;;;;;;5.68;3.80;;;27.60;41.00;;;;;;4910540;28;45041;-64
2023/06/19 06:56:24;;;;;;;4.40;3.97;;;27.60;41.10;;;;;;4906146;28;45004;-66
2023/06/19 06:58:50;;;;;;;5.57;4.60;;;27.60;41.20;;;;;;4930365;28;45041;-67
2023/06/19 07:01:15;;;;;;;4.18;3.72;;;27.60;41.30;;;;;;4917967;28;46060;-64
2023/06/19 07:03:41;;;;;;;3.97;3.60;;;27.60;41.30;;;;;;4925952;28;45016;-66
2023/06/19 07:06:06;;;;;;;3.80;3.50;;;27.60;41.30;;;;;;4905258;28;45135;-65
2023/06/19 07:08:32;;;;;;;4.55;4.15;;;27.70;41.40;;;;;;4912227;28;45268;-66
2023/06/19 07:10:57;;;;;;;4.22;3.83;;;27.60;41.40;;;;;;4923168;28;45509;-63
2023/06/19 07:13:23;;;;;;;3.55;3.25;;;27.70;41.50;;;;;;4911474;28;45002;-64
2023/06/19 07:15:49;;;;;;;5.28;3.80;;;27.70;41.60;;;;;;4902111;28;46312;-66
2023/06/19 07:18:14;;;;;;;6.07;3.45;;;27.70;41.60;;;;;;4926340;28;44749;-67
2023/06/19 07:20:40;;;;;;;3.55;3.25;;;27.70;41.70;;;;;;4901622;28;47375;-66
2023/06/19 07:23:06;;;;;;;4.25;3.30;;;27.70;42.00;;;;;;4894437;28;46121;-66
2023/06/19 07:25:33;;;;;;;7.68;3.70;;;27.70;41.70;;;;;;4908127;28;45085;-65
2023/06/19 07:28:00;;;;;;;3.95;3.25;;;27.70;41.90;;;;;;4896705;28;45243;-66
2023/06/19 07:30:25;;;;;;;2.92;2.63;;;27.70;41.90;;;;;;4916047;28;46085;-66
2023/06/19 07:32:51;;;;;;;3.28;2.67;;;27.70;41.90;;;;;;4888676;28;45385;-62
2023/06/19 07:35:16;;;;;;;3.25;2.90;;;27.70;42.00;;;;;;4921377;28;45341;-60
2023/06/19 07:37:42;;;;;;;3.33;2.60;;;27.70;42.00;;;;;;4916260;28;45188;-61
2023/06/19 07:40:08;;;;;;;3.08;2.60;;;27.70;42.00;;;;;;4886850;28;47301;-61
2023/06/19 07:42:34;;;;;;;4.20;2.85;;;27.80;42.10;;;;;;4912076;28;44761;-62
2023/06/19 07:44:59;;;;;;;3.63;2.38;;;27.80;42.10;;;;;;4912387;28;45113;-59
2023/06/19 07:47:26;;;;;;;3.10;2.60;;;27.80;42.10;;;;;;4915594;28;44687;-60
2023/06/19 07:49:51;;;;;;;3.10;2.75;;;27.80;42.20;;;;;;4923886;28;46344;-59
2023/06/19 07:52:17;;;;;;;2.80;2.55;;;27.80;42.20;;;;;;4923537;28;45371;-60
2023/06/19 07:54:56;;;;;;;4.97;2.40;;;27.80;42.30;;;;;;4928806;28;44973;-61
2023/06/19 07:57:21;;;;;;;2.90;2.50;;;27.80;42.50;;;;;;4922951;28;45234;-62
2023/06/19 07:59:48;;;;;;;4.90;2.38;;;27.80;42.40;;;;;;4913370;28;45190;-60
2023/06/19 08:02:14;;;;;;;2.63;2.42;;;27.80;42.40;;;;;;4915530;28;45406;-61
2023/06/19 08:04:39;;;;;;;2.47;2.28;;;27.80;42.40;;;;;;4911589;28;44975;-61
2023/06/19 08:07:05;;;;;;;2.75;2.55;;;27.80;42.40;;;;;;4902094;28;45109;-60
2023/06/19 08:09:31;;;;;;;3.58;2.35;;;27.80;42.40;;;;;;4930500;28;45832;-61
2023/06/19 08:11:57;;;;;;;3.38;2.53;;;27.80;42.50;;;;;;4920329;28;45350;-60
2023/06/19 08:14:22;;;;;;;2.80;2.50;;;27.80;42.50;;;;;;4891361;28;45146;-61
2023/06/19 08:16:48;;;;;;;2.63;2.35;;;27.80;42.50;;;;;;4897205;28;45478;-60
2023/06/19 08:19:13;;;;;;;2.35;2.10;;;27.80;42.60;;;;;;4919679;28;45473;-61
2023/06/19 08:21:39;;;;;;;2.28;2.05;;;27.80;42.70;;;;;;4905756;28;45128;-61
2023/06/19 08:24:05;;;;;;;4.65;2.70;;;27.80;42.70;;;;;;4927437;28;45029;-60
2023/06/19 08:26:30;;;;;;;4.78;2.42;;;27.90;42.80;;;;;;4923173;28;45355;-61
2023/06/19 08:28:56;;;;;;;1.88;1.73;;;27.90;42.70;;;;;;4917985;28;45669;-62
2023/06/19 08:31:27;;;;;;;3.38;1.98;;;27.90;42.70;;;;;;4913442;28;44933;-61
2023/06/19 08:33:56;;;;;;;4.82;2.42;;;27.90;42.80;;;;;;4911437;28;45190;-61
2023/06/19 08:36:22;;;;;;;2.90;2.20;;;27.90;43.00;;;;;;4921133;28;45867;-60
2023/06/19 08:38:49;;;;;;;2.13;1.80;;;27.90;42.90;;;;;;4890982;28;45289;-60
2023/06/19 08:41:21;;;;;;;2.10;2.00;;;27.90;42.90;;;;;;4906895;28;45269;-61
2023/06/19 08:43:46;;;;;;;7.55;2.28;;;28.00;42.90;;;;;;4925030;28;44928;-60
2023/06/19 08:46:14;;;;;;;2.75;2.25;;;28.00;42.90;;;;;;4904616;28;45279;-60
2023/06/19 08:48:40;;;;;;;2.50;2.30;;;28.00;43.60;;;;;;4918858;28;45988;-61
2023/06/19 08:51:05;;;;;;;4.22;2.03;;;28.00;42.90;;;;;;4922482;28;45078;-61
2023/06/19 08:53:35;;;;;;;2.58;2.13;;;28.00;43.00;;;;;;4916040;28;45296;-61
2023/06/19 08:56:02;;;;;;;2.50;1.95;;;28.00;43.10;;;;;;4920067;28;45101;-61
2023/06/19 08:58:28;;;;;;;2.88;1.77;;;28.10;43.10;;;;;;4923102;28;45126;-60
2023/06/19 09:00:53;;;;;;;2.17;1.80;;;28.10;43.10;;;;;;4904911;28;45223;-62
2023/06/19 09:03:22;;;;;;;2.90;2.35;;;28.00;43.20;;;;;;4914619;28;44935;-61
2023/06/19 09:05:51;;;;;;;2.17;1.98;;;28.00;43.30;;;;;;4906641;28;45145;-61
2023/06/19 09:08:17;;;;;;;2.15;1.90;;;28.00;43.30;;;;;;4892119;28;44962;-61
2023/06/19 09:10:43;;;;;;;2.83;2.17;;;28.10;43.40;;;;;;4887184;28;46093;-63
2023/06/19 09:13:09;;;;;;;7.45;2.17;;;28.00;43.30;;;;;;4879368;28;45414;-60
2023/06/19 09:15:35;;;;;;;2.30;2.10;;;28.10;44.00;;;;;;4886912;28;44774;-62
2023/06/19 09:18:02;;;;;;;2.03;1.90;;;28.10;43.40;;;;;;4895921;28;45581;-63
2023/06/19 09:20:28;;;;;;;4.40;2.20;;;28.10;43.40;;;;;;4900995;28;44779;-63
2023/06/19 09:22:57;;;;;;;2.97;2.20;;;28.10;43.50;;;;;;4893917;28;44971;-60
2023/06/19 09:25:26;;;;;;;3.17;2.28;;;28.10;43.70;;;;;;4905816;28;45278;-60
2023/06/19 09:27:55;;;;;;;3.15;1.65;;;28.10;43.60;;;;;;4882995;28;46356;-60
2023/06/19 09:30:21;;;;;;;2.28;1.95;;;28.10;43.60;;;;;;4868637;28;45704;-61
2023/06/19 09:32:46;;;;;;;2.13;1.92;;;28.10;43.60;;;;;;4906241;28;45830;-60
2023/06/19 09:35:12;;;;;;;2.03;1.85;;;28.10;43.60;;;;;;4904905;28;45518;-61
2023/06/19 09:37:38;;;;;;;3.15;2.08;;;28.10;43.50;;;;;;4913085;28;46621;-61
2023/06/19 09:40:10;;;;;;;3.13;1.88;;;28.10;44.10;;;;;;4889242;28;45030;-60
2023/06/19 09:42:43;;;;;;;3.00;2.10;;;28.20;43.50;;;;;;4895142;28;45255;-61
2023/06/19 09:45:10;;;;;;;;;;;28.20;43.70;;;;;;4892230;28;45058;-68
2023/06/19 09:47:45;;;;;;;1.90;1.75;;;28.20;44.10;;;;;;4877795;28;45194;-62
2023/06/19 09:50:15;;;;;;;2.58;2.17;;;28.20;43.50;;;;;;4903731;28;45150;-61
2023/06/19 09:52:41;;;;;;;3.50;2.10;;;28.20;43.50;;;;;;4891140;28;45373;-63
2023/06/19 09:55:12;;;;;;;1.77;1.67;;;28.20;43.40;;;;;;4894846;28;45328;-61
2023/06/19 09:57:38;;;;;;;5.57;1.70;;;28.20;43.30;;;;;;4909171;28;45990;-61
2023/06/19 10:00:12;;;;;;;4.80;1.95;;;28.30;43.40;;;;;;4908439;28;44938;-63
2023/06/19 10:02:40;;;;;;;2.30;2.10;;;28.30;43.40;;;;;;4860532;28;45103;-62
2023/06/19 10:05:11;;;;;;;5.72;1.88;;;28.30;43.40;;;;;;4924078;28;45233;-61
2023/06/19 10:07:37;;;;;;;2.38;1.88;;;28.40;43.40;;;;;;4898155;28;45606;-60
2023/06/19 10:10:07;;;;;;;2.30;2.08;;;28.40;43.40;;;;;;4927496;28;45769;-61
2023/06/19 10:12:43;;;;;;;2.10;1.90;;;28.40;43.40;;;;;;4892172;28;45109;-61
2023/06/19 10:15:19;;;;;;;2.63;1.85;;;28.40;43.30;;;;;;4914087;28;45193;-61
2023/06/19 10:17:46;;;;;;;1.92;1.80;;;28.50;43.30;;;;;;4913464;28;46196;-61
2023/06/19 10:20:20;;;;;;;2.08;1.77;;;28.50;43.20;;;;;;4926613;28;45000;-61
2023/06/19 10:22:56;;;;;;;2.00;1.67;;;28.50;43.30;;;;;;4916446;28;45612;-61
2023/06/19 10:25:23;;;;;;;2.92;1.95;;;28.50;43.20;;;;;;4930530;28;44957;-60
2023/06/19 10:27:52;;;;;;;2.17;1.98;;;28.50;43.10;;;;;;4899521;28;45891;-61
2023/06/19 10:30:19;;;;;;;3.70;2.30;;;28.60;43.10;;;;;;4909537;28;44901;-59
2023/06/19 10:32:45;;;;;;;3.72;2.15;;;28.60;43.10;;;;;;4909876;28;45529;-60
2023/06/19 10:35:12;;;;;;;2.97;2.08;;;28.60;43.10;;;;;;4923460;28;45015;-61
2023/06/19 10:37:38;;;;;;;2.70;1.88;;;28.60;43.10;;;;;;4904042;28;46100;-60
2023/06/19 10:40:09;;;;;;;3.40;2.00;;;28.70;43.10;;;;;;4908452;28;45522;-60
2023/06/19 10:42:36;;;;;;;1.83;1.73;;;28.70;43.00;;;;;;4916617;28;45109;-61
2023/06/19 10:45:06;;;;;;;2.92;1.90;;;28.70;43.00;;;;;;4931335;28;45075;-60
2023/06/19 10:47:32;;;;;;;2.63;2.10;;;28.80;43.10;;;;;;4894219;28;45515;-61
2023/06/19 10:49:58;;;;;;;3.10;2.40;;;28.80;43.10;;;;;;4899337;28;45623;-61
2023/06/19 10:52:24;;;;;;;2.30;2.10;;;28.80;43.10;;;;;;4912165;28;45364;-61
2023/06/19 10:54:54;;;;;;;4.53;2.13;;;28.80;43.10;;;;;;4929932;28;45229;-59
2023/06/19 10:57:27;;;;;;;2.95;2.00;;;28.90;43.10;;;;;;4882725;28;46197;-61
2023/06/19 10:59:53;;;;;;;;;;;28.90;43.10;;;;;;4925841;28;44873;-60
2023/06/19 11:02:18;;;;;;;2.13;1.92;;;28.80;43.10;;;;;;4920747;28;45495;-62
2023/06/19 11:04:44;;;;;;;1.95;1.80;;;28.90;43.00;;;;;;4926852;28;45458;-60
2023/06/19 11:07:10;;;;;;;2.20;1.70;;;28.90;43.00;;;;;;4887454;28;45849;-62
2023/06/19 11:09:36;;;;;;;2.53;1.73;;;28.90;43.00;;;;;;4911908;28;44664;-63
2023/06/19 11:12:01;;;;;;;3.72;2.30;;;29.00;42.90;;;;;;4911589;28;45373;-63
2023/06/19 11:14:29;;;;;;;3.35;2.00;;;29.00;42.90;;;;;;4927112;28;45346;-61
2023/06/19 11:16:54;;;;;;;2.55;2.00;;;29.10;42.70;;;;;;4902867;28;46013;-62
2023/06/19 11:19:21;;;;;;;2.25;2.05;;;29.20;42.60;;;;;;4910001;28;45998;-62
2023/06/19 11:21:48;;;;;;;1.88;1.77;;;29.20;42.50;;;;;;4907936;28;44792;-62
2023/06/19 11:24:14;;;;;;;;;;;29.20;42.40;;;;;;4913524;28;45905;-61
2023/06/19 11:26:43;;;;;;;2.22;1.70;;;29.20;42.40;;;;;;4926478;28;45873;-61
2023/06/19 11:29:22;;;;;;;1.80;1.70;;;29.20;42.40;;;;;;4928947;28;45017;-61
2023/06/19 11:31:48;;;;;;;1.80;1.70;;;29.30;42.30;;;;;;4919695;28;44955;-61
2023/06/19 11:34:14;;;;;;;2.03;1.83;;;29.30;42.30;;;;;;4929289;28;44699;-61
2023/06/19 11:36:40;;;;;;;2.97;2.08;;;29.40;42.20;;;;;;4905575;28;46225;-60
2023/06/19 11:39:15;;;;;;;3.38;1.85;;;29.40;42.10;;;;;;4927318;28;45059;-62
2023/06/19 11:41:41;;;;;;;1.60;1.50;;;29.50;42.70;;;;;;4910964;28;45036;-63
2023/06/19 11:44:09;;;;;;;2.08;1.70;;;29.40;42.00;;;;;;4915617;28;45055;-63
2023/06/19 11:46:34;;;;;;;1.73;1.60;;;29.50;42.00;;;;;;4918499;28;45686;-62
2023/06/19 11:49:13;;;;;;;4.00;2.05;;;29.50;41.90;;;;;;4912781;28;44680;-61
2023/06/19 11:51:39;;;;;;;4.50;1.67;;;29.50;41.90;;;;;;4925910;28;45445;-63
2023/06/19 11:54:08;;;;;;;2.10;1.55;;;29.60;41.90;;;;;;4906212;28;44731;-62
2023/06/19 11:56:34;;;;;;;2.80;1.83;;;29.60;41.80;;;;;;4923327;28;45672;-63
2023/06/19 11:58:59;;;;;;;2.47;1.60;;;29.60;41.60;;;;;;4929958;28;44683;-63
2023/06/19 12:01:26;;;;;;;1.70;1.60;;;29.70;41.60;;;;;;4917595;28;45056;-63
2023/06/19 12:03:51;;;;;;;2.15;1.50;;;29.70;41.50;;;;;;4930716;28;44980;-62
2023/06/19 12:06:18;;;;;;;2.63;1.85;;;29.70;41.40;;;;;;4924786;28;46085;-62
2023/06/19 12:08:44;;;;;;;1.92;1.83;;;29.80;41.50;;;;;;4897369;28;44989;-62
2023/06/19 12:11:10;;;;;;;1.73;1.63;;;29.80;41.40;;;;;;4906601;28;45416;-62
2023/06/19 12:13:36;;;;;;;4.28;1.90;;;29.80;41.40;;;;;;4915150;28;45186;-62
2023/06/19 12:16:02;;;;;;;1.98;1.83;;;29.90;41.40;;;;;;4903812;28;46770;-62
2023/06/19 12:18:27;;;;;;;2.05;1.80;;;29.90;41.60;;;;;;4930762;28;44983;-61
2023/06/19 12:20:53;;;;;;;3.03;1.88;;;29.90;41.30;;;;;;4927028;28;45174;-61
2023/06/19 12:23:19;;;;;;;2.28;2.08;;;29.90;41.20;;;;;;4931477;28;44945;-62
2023/06/19 12:25:44;;;;;;;2.08;1.60;;;30.00;41.20;;;;;;4915864;28;45158;-62
2023/06/19 12:28:11;;;;;;;1.60;1.50;;;30.00;41.20;;;;;;4933761;28;45769;-62
2023/06/19 12:30:37;;;;;;;2.53;1.73;;;30.00;41.10;;;;;;4907967;28;45222;-60
2023/06/19 12:33:03;;;;;;;2.83;2.30;;;30.00;41.00;;;;;;4908357;28;45076;-61
2023/06/19 12:35:29;;;;;;;2.08;1.80;;;30.00;41.00;;;;;;4923358;28;45306;-61
2023/06/19 12:37:54;;;;;;;2.25;1.70;;;30.00;40.90;;;;;;4930977;28;45024;-61
2023/06/19 12:40:20;;;;;;;3.78;2.10;;;30.00;40.90;;;;;;4906573;28;45103;-61
2023/06/19 12:42:46;;;;;;;1.77;1.65;;;30.10;40.80;;;;;;4916649;28;45362;-60
2023/06/19 12:45:14;;;;;;;2.00;1.70;;;30.10;40.70;;;;;;4924217;28;45964;-61
2023/06/19 12:47:40;;;;;;;1.98;1.77;;;30.10;40.60;;;;;;4909146;28;45431;-62
2023/06/19 12:50:10;;;;;;;1.73;1.52;;;30.20;40.70;;;;;;4911037;28;44836;-62
2023/06/19 12:52:35;;;;;;;2.38;1.98;;;30.20;40.70;;;;;;4933558;28;45114;-62
2023/06/19 12:55:01;;;;;;;2.22;1.90;;;30.20;40.60;;;;;;4936429;28;45477;-63
2023/06/19 12:57:30;;;;;;;1.83;1.73;;;30.20;40.60;;;;;;4912491;28;44854;-62
2023/06/19 12:59:55;;;;;;;6.00;2.00;;;30.20;40.50;;;;;;4914648;28;44694;-62
2023/06/19 13:02:21;;;;;;;2.00;1.80;;;30.20;40.50;;;;;;4922007;28;45104;-61
2023/06/19 13:04:46;;;;;;;2.30;1.98;;;30.20;40.50;;;;;;4932600;28;45070;-61
2023/06/19 13:07:12;;;;;;;1.70;1.60;;;30.20;40.40;;;;;;4926857;28;45185;-61
2023/06/19 13:09:38;;;;;;;3.20;1.90;;;30.20;40.40;;;;;;4914690;28;45050;-63
2023/06/19 13:12:04;;;;;;;2.38;1.88;;;30.20;40.40;;;;;;4927191;28;45063;-62
2023/06/19 13:14:31;;;;;;;2.55;1.90;;;30.20;40.30;;;;;;4931210;28;45471;-62
2023/06/19 13:16:57;;;;;;;2.42;2.00;;;30.30;40.50;;;;;;4924306;28;45087;-63
2023/06/19 13:19:23;;;;;;;2.97;1.77;;;30.20;40.30;;;;;;4914343;28;45416;-62
2023/06/19 13:21:48;;;;;;;2.25;1.67;;;30.30;40.40;;;;;;4912711;28;45283;-63
2023/06/19 13:24:14;;;;;;;4.30;2.17;;;30.30;40.30;;;;;;4915157;28;46245;-63
2023/06/19 13:26:39;;;;;;;4.25;1.90;;;30.30;40.20;;;;;;4927071;28;45090;-62
2023/06/19 13:29:05;;;;;;;4.13;2.03;;;30.30;40.20;;;;;;4914845;28;45635;-62
2023/06/19 13:31:31;;;;;;;2.40;2.20;;;30.30;40.20;;;;;;4903653;28;45382;-61
2023/06/19 13:33:57;;;;;;;2.05;1.75;;;30.30;40.20;;;;;;4931471;28;45957;-62
2023/06/19 13:36:23;;;;;;;2.47;1.73;;;30.30;40.20;;;;;;4912559;28;44926;-61
2023/06/19 13:38:49;;;;;;;2.28;2.08;;;30.30;40.20;;;;;;4916718;28;44728;-60
2023/06/19 13:41:14;;;;;;;2.85;2.30;;;30.30;40.20;;;;;;4910731;28;45735;-61
2023/06/19 13:43:40;;;;;;;2.00;1.73;;;30.30;40.30;;;;;;4915235;28;46191;-60
2023/06/19 13:46:06;;;;;;;2.38;1.90;;;30.30;40.30;;;;;;4907408;28;45015;-62
2023/06/19 13:48:32;;;;;;;3.28;2.10;;;30.30;40.30;;;;;;4928243;28;44960;-62
2023/06/19 13:50:59;;;;;;;1.80;1.70;;;30.30;40.30;;;;;;4926271;28;44620;-61
2023/06/19 13:53:25;;;;;;;2.13;1.92;;;30.30;40.40;;;;;;4914334;28;45188;-61
2023/06/19 13:55:50;;;;;;;2.05;1.73;;;30.30;40.40;;;;;;4894533;28;45576;-60
2023/06/19 13:58:16;;;;;;;2.65;2.00;;;30.30;40.50;;;;;;4934415;28;45309;-62
2023/06/19 14:00:41;;;;;;;2.92;1.90;;;30.40;40.60;;;;;;4903926;28;45064;-60
2023/06/19 14:03:07;;;;;;;4.53;2.05;;;30.40;40.60;;;;;;4908856;28;46169;-62
2023/06/19 14:05:33;;;;;;;2.78;2.40;;;30.40;40.60;;;;;;4907469;28;45180;-62
2023/06/19 14:07:58;;;;;;;2.55;2.13;;;30.40;40.60;;;;;;4915977;28;45111;-62
2023/06/19 14:10:24;;;;;;;2.88;2.05;;;30.40;40.60;;;;;;4906776;28;45269;-62
2023/06/19 14:12:50;;;;;;;2.47;2.28;;;30.40;40.60;;;;;;4909260;28;46227;-62
2023/06/19 14:15:16;;;;;;;2.65;2.38;;;30.40;40.60;;;;;;4924707;28;44711;-61
2023/06/19 14:17:41;;;;;;;2.30;2.10;;;30.40;40.70;;;;;;4927588;28;45378;-62
2023/06/19 14:20:10;;;;;;;2.45;2.25;;;30.40;40.70;;;;;;4900204;28;45048;-63
2023/06/19 14:22:35;;;;;;;2.75;2.30;;;30.40;40.90;;;;;;4926770;28;45666;-62
2023/06/19 14:25:05;;;;;;;2.53;2.33;;;30.40;41.00;;;;;;4921686;28;45072;-61
2023/06/19 14:27:30;;;;;;;4.03;2.58;;;30.40;41.20;;;;;;4912113;28;44960;-62
2023/06/19 14:29:56;;;;;;;3.70;2.50;;;30.40;41.50;;;;;;4916438;28;45508;-63
2023/06/19 14:32:23;;;;;;;3.35;2.80;;;30.40;41.70;;;;;;4900217;28;46216;-62
2023/06/19 14:34:48;;;;;;;3.33;2.75;;;30.30;41.90;;;;;;4930508;28;45052;-59
2023/06/19 14:37:14;;;;;;;3.08;2.75;;;30.30;42.50;;;;;;4916934;28;45319;-59
2023/06/19 14:39:39;;;;;;;3.38;2.58;;;30.30;42.50;;;;;;4912691;28;44741;-59
2023/06/19 14:42:05;;;;;;;3.47;2.67;;;30.30;42.60;;;;;;4926762;28;45499;-59
2023/06/19 14:44:31;;;;;;;2.80;2.40;;;30.40;42.70;;;;;;4930046;28;44959;-59
2023/06/19 14:46:58;;;;;;;2.90;2.42;;;30.40;42.70;;;;;;4904749;28;44983;-59
2023/06/19 14:49:23;;;;;;;4.38;2.70;;;30.40;43.40;;;;;;4911793;28;45022;-58
2023/06/19 14:51:49;;;;;;;2.50;2.28;;;30.40;42.90;;;;;;4921577;28;45666;-59
2023/06/19 14:54:17;;;;;;;2.70;2.50;;;30.40;42.80;;;;;;4932035;28;46068;-59
2023/06/19 14:56:48;;;;;;;2.95;2.65;;;30.40;42.70;;;;;;4917593;28;45570;-59
2023/06/19 14:59:14;;;;;;;2.67;2.35;;;30.40;42.70;;;;;;4928297;28;45240;-57
2023/06/19 15:01:40;;;;;;;2.50;2.15;;;30.40;42.70;;;;;;4906188;28;46129;-58
2023/06/19 15:04:05;;;;;;;2.65;2.45;;;30.40;42.60;;;;;;4924792;28;45257;-58
2023/06/19 15:06:31;;;;;;;3.50;2.90;;;30.40;42.60;;;;;;4903935;28;44783;-60
2023/06/19 15:08:57;;;;;;;3.38;2.30;;;30.40;42.60;;;;;;4908242;28;45067;-58
2023/06/19 15:11:22;;;;;;;3.10;2.80;;;30.40;42.60;;;;;;4922701;28;45577;-58
2023/06/19 15:13:48;;;;;;;2.45;2.25;;;30.40;42.50;;;;;;4911732;28;44950;-57
2023/06/19 15:16:13;;;;;;;3.95;2.42;;;30.40;42.50;;;;;;4920041;28;45234;-59
2023/06/19 15:18:40;;;;;;;4.97;2.08;;;30.40;42.40;;;;;;4926937;28;45199;-59
2023/06/19 15:21:07;;;;;;;2.40;2.20;;;30.30;42.40;;;;;;4921416;28;46489;-60
2023/06/19 15:23:33;;;;;;;3.55;2.28;;;30.20;42.50;;;;;;4909384;28;45267;-59
2023/06/19 15:25:58;;;;;;;2.50;2.25;;;30.20;42.70;;;;;;4906191;28;45265;-59
2023/06/19 15:28:24;;;;;;;2.38;2.17;;;30.20;42.90;;;;;;4905809;28;45095;-60
2023/06/19 15:30:50;;;;;;;2.05;1.88;;;30.10;43.10;;;;;;4897910;28;45137;-59
2023/06/19 15:33:16;;;;;;;3.97;1.88;;;30.00;43.10;;;;;;4902101;28;45203;-57
2023/06/19 15:35:42;;;;;;;2.53;1.60;;;30.00;43.10;;;;;;4901656;28;45154;-59
2023/06/19 15:38:07;;;;;;;1.70;1.60;;;30.00;43.00;;;;;;4913142;28;45054;-59
2023/06/19 15:40:33;;;;;;;2.05;1.50;;;30.00;43.10;;;;;;4905701;28;45002;-59
2023/06/19 15:42:58;;;;;;;2.97;1.77;;;29.90;42.90;;;;;;4907783;28;46098;-60